createdAt,value
2022-09-13T00:00:00.729Z,15
2022-09-13T00:03:00.688Z,15
2022-09-13T00:06:00.764Z,14.8
2022-09-13T00:09:00.742Z,14.8
2022-09-13T00:12:00.751Z,14.8
2022-09-13T00:15:00.700Z,14.8
2022-09-13T00:18:00.705Z,14.8
2022-09-13T00:21:00.714Z,14.8
2022-09-13T00:24:00.716Z,14.8
2022-09-13T00:27:00.687Z,14.8
2022-09-13T00:30:00.760Z,14.8
2022-09-13T00:33:00.713Z,14.8
2022-09-13T00:36:00.692Z,14.8
2022-09-13T00:39:00.719Z,14.8
2022-09-13T00:42:00.675Z,14.8
2022-09-13T00:45:00.723Z,14.7
2022-09-13T00:48:00.699Z,14.7
2022-09-13T00:51:00.679Z,14.7
2022-09-13T00:54:00.775Z,14.7
2022-09-13T00:57:00.666Z,14.7
2022-09-13T01:00:00.734Z,14.7
2022-09-13T01:03:00.691Z,14.6
2022-09-13T01:06:00.715Z,14.6
2022-09-13T01:09:00.775Z,14.6
2022-09-13T01:12:00.729Z,14.6
2022-09-13T01:15:00.708Z,14.6
2022-09-13T01:18:00.740Z,14.6
2022-09-13T01:21:00.667Z,14.5
2022-09-13T01:24:00.718Z,14.5
2022-09-13T01:27:00.720Z,14.5
2022-09-13T01:30:00.831Z,14.4
2022-09-13T01:33:00.681Z,14.4
2022-09-13T01:36:00.713Z,14.4
2022-09-13T01:39:00.716Z,14.4
2022-09-13T01:42:00.695Z,14.4
2022-09-13T01:45:00.706Z,14.3
2022-09-13T01:48:00.681Z,14.3
2022-09-13T01:51:00.677Z,14.3
2022-09-13T01:54:00.667Z,14.3
2022-09-13T01:57:00.690Z,14.3
2022-09-13T02:00:00.730Z,14.3
2022-09-13T02:03:00.761Z,14.3
2022-09-13T02:06:00.684Z,14.2
2022-09-13T02:09:00.729Z,14.2
2022-09-13T02:12:00.721Z,14.2
2022-09-13T02:15:00.692Z,14.2
2022-09-13T02:18:00.709Z,14.2
2022-09-13T02:21:00.710Z,14.2
2022-09-13T02:24:00.703Z,14.2
2022-09-13T02:27:00.710Z,14.2
2022-09-13T02:30:00.694Z,14.1
2022-09-13T02:33:00.690Z,14.1
2022-09-13T02:36:00.686Z,14.1
2022-09-13T02:39:00.728Z,14.1
2022-09-13T02:42:00.724Z,14.1
2022-09-13T02:45:00.735Z,14.1
2022-09-13T02:48:00.769Z,14.1
2022-09-13T02:51:00.671Z,14.1
2022-09-13T02:54:00.716Z,14.1
2022-09-13T02:57:00.695Z,14.1
2022-09-13T03:00:00.724Z,14.1
2022-09-13T03:03:00.695Z,14.1
2022-09-13T03:06:00.693Z,14.1
2022-09-13T03:09:00.697Z,14.1
2022-09-13T03:12:00.690Z,14.1
2022-09-13T03:15:00.688Z,14.1
2022-09-13T03:18:00.697Z,14
2022-09-13T03:21:00.808Z,14
2022-09-13T03:24:00.768Z,14
2022-09-13T03:27:00.711Z,14
2022-09-13T03:30:00.736Z,14
2022-09-13T03:33:00.878Z,14
2022-09-13T03:36:00.720Z,14
2022-09-13T03:39:00.698Z,14
2022-09-13T03:42:00.705Z,14
2022-09-13T03:45:00.723Z,14.3
2022-09-13T03:48:00.752Z,14.3
2022-09-13T03:51:00.684Z,14.5
2022-09-13T03:54:00.780Z,14.5
2022-09-13T03:57:00.757Z,14.5
2022-09-13T04:00:00.778Z,14.5
2022-09-13T04:03:00.722Z,14.5
2022-09-13T04:06:00.702Z,14.5
2022-09-13T04:09:00.693Z,14.5
2022-09-13T04:12:00.698Z,14.5
2022-09-13T04:15:00.691Z,14.5
2022-09-13T04:18:00.823Z,14.5
2022-09-13T04:21:00.693Z,14.5
2022-09-13T04:24:00.715Z,14.5
2022-09-13T04:27:00.691Z,14.5
2022-09-13T04:30:00.706Z,15
2022-09-13T04:33:00.687Z,15
2022-09-13T04:36:00.742Z,15
2022-09-13T04:39:00.733Z,15
2022-09-13T04:42:00.695Z,15
2022-09-13T04:45:00.713Z,15
2022-09-13T04:48:00.713Z,15.1
2022-09-13T04:51:00.746Z,15.1
2022-09-13T04:54:00.725Z,15.1
2022-09-13T04:57:00.740Z,15.1
2022-09-13T05:00:00.764Z,15.1
2022-09-13T05:03:00.783Z,15.1
2022-09-13T05:06:00.734Z,15.1
2022-09-13T05:09:00.777Z,15.1
2022-09-13T05:12:00.756Z,15.1
2022-09-13T05:15:00.776Z,15.1
2022-09-13T05:18:00.792Z,15.1
2022-09-13T05:21:00.695Z,15.1
2022-09-13T05:24:00.732Z,15.1
2022-09-13T05:27:00.712Z,15.1
2022-09-13T05:30:01.108Z,15.1
2022-09-13T05:33:00.759Z,15.1
2022-09-13T05:36:00.771Z,15.5
2022-09-13T05:39:36.233Z,15.6
2022-09-13T05:42:00.745Z,15.6
2022-09-13T05:45:00.774Z,15.6
2022-09-13T05:48:00.724Z,15.6
2022-09-13T05:51:00.794Z,15.6
2022-09-13T05:54:00.734Z,15.6
2022-09-13T05:57:00.747Z,15.6
2022-09-13T06:00:00.833Z,15.6
2022-09-13T06:03:00.834Z,15.6
2022-09-13T06:06:00.779Z,15.6
2022-09-13T06:09:00.860Z,15.6
2022-09-13T06:12:00.741Z,15.6
2022-09-13T06:15:00.712Z,15.6
2022-09-13T06:18:00.738Z,16.1
2022-09-13T06:21:00.761Z,16.1
2022-09-13T06:24:00.723Z,16.1
2022-09-13T06:27:00.756Z,16.1
2022-09-13T06:30:00.774Z,16.1
2022-09-13T06:33:00.735Z,16.3
2022-09-13T06:36:00.780Z,16.3
2022-09-13T06:39:00.958Z,16.3
2022-09-13T06:42:00.764Z,16.3
2022-09-13T06:45:00.774Z,16.3
2022-09-13T06:48:00.734Z,16.3
2022-09-13T06:51:00.777Z,16.6
2022-09-13T06:54:00.761Z,16.6
2022-09-13T06:57:00.747Z,16.6
2022-09-13T07:00:00.871Z,16.6
2022-09-13T07:03:00.722Z,16.6
2022-09-13T07:06:00.774Z,16.6
2022-09-13T07:09:00.800Z,16.6
2022-09-13T07:12:00.802Z,16.6
2022-09-13T07:15:00.773Z,16.6
2022-09-13T07:18:00.742Z,16.6
2022-09-13T07:21:00.719Z,16.6
2022-09-13T07:24:00.775Z,17.1
2022-09-13T07:27:00.694Z,17.2
2022-09-13T07:30:00.831Z,17.2
2022-09-13T07:33:00.781Z,17.2
2022-09-13T07:36:00.734Z,17.2
2022-09-13T07:39:00.712Z,17.2
2022-09-13T07:42:00.737Z,17.2
2022-09-13T07:45:00.824Z,17.2
2022-09-13T07:48:00.775Z,17.6
2022-09-13T07:51:00.718Z,17.6
2022-09-13T07:54:00.767Z,17.6
2022-09-13T07:57:00.754Z,17.6
2022-09-13T08:00:00.836Z,17.6
2022-09-13T08:03:00.714Z,17.6
2022-09-13T08:06:00.790Z,17.6
2022-09-13T08:09:00.745Z,17.6
2022-09-13T08:12:00.772Z,18.1
2022-09-13T08:15:00.737Z,18.1
2022-09-13T08:18:00.886Z,18.1
2022-09-13T08:21:00.780Z,18.3
2022-09-13T08:24:00.734Z,18.3
2022-09-13T08:27:00.723Z,18.3
2022-09-13T08:30:00.803Z,18.3
2022-09-13T08:33:00.733Z,18.3
2022-09-13T08:36:00.738Z,18.9
2022-09-13T08:39:00.783Z,18.9
2022-09-13T08:42:00.736Z,18.9
2022-09-13T08:45:00.732Z,18.9
2022-09-13T08:48:00.729Z,18.9
2022-09-13T08:51:00.770Z,18.9
2022-09-13T08:54:00.776Z,18.9
2022-09-13T08:57:00.719Z,19.4
2022-09-13T09:00:00.751Z,19.4
2022-09-13T09:03:00.732Z,19.4
2022-09-13T09:06:00.809Z,19.4
2022-09-13T09:09:00.770Z,19.4
2022-09-13T09:12:00.765Z,19.4
2022-09-13T09:15:00.748Z,19.4
2022-09-13T09:18:00.784Z,19.6
2022-09-13T09:21:00.714Z,19.6
2022-09-13T09:24:00.755Z,19.6
2022-09-13T09:27:00.753Z,19.6
2022-09-13T09:30:00.779Z,19.6
2022-09-13T09:33:00.732Z,19.6
2022-09-13T09:36:00.739Z,19.9
2022-09-13T09:39:00.785Z,19.9
2022-09-13T09:42:00.784Z,19.9
2022-09-13T09:45:00.768Z,19.9
2022-09-13T09:48:00.788Z,19.9
2022-09-13T09:51:00.681Z,19.9
2022-09-13T09:54:00.738Z,19.9
2022-09-13T09:57:00.704Z,19.9
2022-09-13T10:00:00.886Z,20.4
2022-09-13T10:03:00.779Z,20.4
2022-09-13T10:06:00.790Z,20.4
2022-09-13T10:09:00.798Z,20.4
2022-09-13T10:12:00.798Z,20.4
2022-09-13T10:15:00.799Z,20.4
2022-09-13T10:18:00.773Z,20.8
2022-09-13T10:21:00.767Z,20.9
2022-09-13T10:24:00.778Z,20.9
2022-09-13T10:27:00.724Z,20.9
2022-09-13T10:30:00.783Z,20.9
2022-09-13T10:33:00.784Z,20.9
2022-09-13T10:36:00.704Z,20.9
2022-09-13T10:39:00.803Z,20.9
2022-09-13T10:42:00.806Z,20.9
2022-09-13T10:45:00.709Z,20.9
2022-09-13T10:48:00.763Z,20.9
2022-09-13T10:51:00.781Z,20.9
2022-09-13T10:54:00.785Z,20.9
2022-09-13T10:57:00.746Z,20.9
2022-09-13T11:00:00.851Z,20.9
2022-09-13T11:03:00.776Z,20.9
2022-09-13T11:06:00.762Z,20.9
2022-09-13T11:09:00.894Z,21.3
2022-09-13T11:12:00.726Z,21.4
2022-09-13T11:15:00.761Z,21.4
2022-09-13T11:18:00.735Z,21.4
2022-09-13T11:21:00.751Z,21.4
2022-09-13T11:24:00.745Z,21.4
2022-09-13T11:27:00.918Z,21.4
2022-09-13T11:30:00.854Z,21.4
2022-09-13T11:33:00.870Z,21.4
2022-09-13T11:36:00.740Z,21.4
2022-09-13T11:39:00.866Z,21.4
2022-09-13T11:42:00.797Z,21.4
2022-09-13T11:45:00.776Z,21.4
2022-09-13T11:48:00.725Z,21.4
2022-09-13T11:51:00.700Z,21.4
2022-09-13T11:54:00.805Z,21.4
2022-09-13T11:57:00.737Z,21.4
2022-09-13T12:00:00.828Z,21.4
2022-09-13T12:03:00.966Z,21.4
2022-09-13T12:06:00.821Z,21.4
2022-09-13T12:09:00.755Z,21.7
2022-09-13T12:12:00.757Z,21.7
2022-09-13T12:15:00.709Z,21.7
2022-09-13T12:18:01.376Z,21.7
2022-09-13T12:21:00.732Z,21.7
2022-09-13T12:24:00.760Z,21.7
2022-09-13T12:27:00.748Z,21.7
2022-09-13T12:30:00.774Z,21.7
2022-09-13T12:33:00.787Z,21.7
2022-09-13T12:36:00.748Z,21.7
2022-09-13T12:39:00.794Z,21.7
2022-09-13T12:42:00.776Z,21.7
2022-09-13T12:45:00.786Z,21.7
2022-09-13T12:48:00.752Z,21.7
2022-09-13T12:51:01.517Z,21.7
2022-09-13T12:54:00.823Z,21.7
2022-09-13T12:57:00.745Z,21.7
2022-09-13T13:00:00.835Z,21.4
2022-09-13T13:03:00.740Z,21.4
2022-09-13T13:06:00.790Z,21.4
2022-09-13T13:09:00.769Z,21.4
2022-09-13T13:12:00.771Z,21.3
2022-09-13T13:15:00.762Z,21.3
2022-09-13T13:18:00.903Z,21.3
2022-09-13T13:21:00.726Z,21.3
2022-09-13T13:24:00.785Z,21.3
2022-09-13T13:27:00.738Z,21.3
2022-09-13T13:30:00.794Z,21.3
2022-09-13T13:33:02.985Z,21.3
2022-09-13T13:39:00.846Z,21.3
2022-09-13T13:42:00.769Z,21.3
2022-09-13T13:45:00.789Z,21.3
2022-09-13T13:48:00.778Z,21.3
2022-09-13T13:51:00.721Z,21.3
2022-09-13T13:54:00.784Z,21.4
2022-09-13T13:57:00.772Z,21.4
2022-09-13T14:00:00.954Z,21.4
2022-09-13T14:03:00.806Z,21.4
2022-09-13T14:06:00.762Z,21.4
2022-09-13T14:12:00.776Z,21.4
2022-09-13T14:15:00.857Z,21.4
2022-09-13T14:18:00.801Z,21.4
2022-09-13T14:21:00.824Z,21.4
2022-09-13T14:24:00.795Z,21.4
2022-09-13T14:27:00.867Z,21.4
2022-09-13T14:30:00.793Z,21.4
2022-09-13T14:33:00.850Z,21.4
2022-09-13T14:36:00.807Z,21.4
2022-09-13T14:39:00.723Z,21.4
2022-09-13T14:42:00.784Z,21.5
2022-09-13T14:45:00.784Z,21.5
2022-09-13T14:48:00.769Z,21.5
2022-09-13T14:51:00.788Z,21.5
2022-09-13T14:54:00.785Z,21.5
2022-09-13T14:57:00.772Z,21.5
2022-09-13T15:00:00.810Z,21.5
2022-09-13T15:03:01.255Z,21.5
2022-09-13T15:06:00.858Z,21.5
2022-09-13T15:09:00.757Z,21.5
2022-09-13T15:12:00.782Z,21.5
2022-09-13T15:15:00.759Z,21.5
2022-09-13T15:18:00.791Z,21.5
2022-09-13T15:21:00.809Z,21.5
2022-09-13T15:24:00.754Z,21.5
2022-09-13T15:27:00.726Z,21.5
2022-09-13T15:30:00.878Z,21.5
2022-09-13T15:33:00.697Z,21.5
2022-09-13T15:36:00.768Z,21.5
2022-09-13T15:39:00.827Z,21.5
2022-09-13T15:42:00.831Z,21.1
2022-09-13T15:45:00.775Z,21
2022-09-13T15:48:00.823Z,21
2022-09-13T15:51:00.823Z,21
2022-09-13T15:54:00.723Z,21
2022-09-13T15:57:00.746Z,21
2022-09-13T16:00:06.851Z,21
2022-09-13T16:03:00.789Z,21
2022-09-13T16:06:00.735Z,21
2022-09-13T16:09:00.700Z,21
2022-09-13T16:12:00.809Z,21
2022-09-13T16:15:00.720Z,20.5
2022-09-13T16:18:00.721Z,20.5
2022-09-13T16:21:00.754Z,20.5
2022-09-13T16:24:00.758Z,20.5
2022-09-13T16:27:00.722Z,20.5
2022-09-13T16:30:00.758Z,20.5
2022-09-13T16:33:00.698Z,20.5
2022-09-13T16:36:02.731Z,20.5
2022-09-13T16:39:00.727Z,20.5
2022-09-13T16:42:00.744Z,20.5
2022-09-13T16:45:00.770Z,20.5
2022-09-13T16:48:00.746Z,20.5
2022-09-13T16:51:00.772Z,20.5
2022-09-13T16:54:00.798Z,20.5
2022-09-13T16:57:00.725Z,20.5
2022-09-13T17:00:00.824Z,20.5
2022-09-13T17:03:00.813Z,20.5
2022-09-13T17:06:00.868Z,20.5
2022-09-13T17:09:00.749Z,20.5
2022-09-13T17:12:00.767Z,20.5
2022-09-13T17:15:00.697Z,20.5
2022-09-13T17:18:00.758Z,20
2022-09-13T17:21:00.792Z,20
2022-09-13T17:24:01.071Z,20
2022-09-13T17:27:00.750Z,20
2022-09-13T17:30:00.833Z,20
2022-09-13T17:33:00.681Z,20
2022-09-13T17:36:00.787Z,19.8
2022-09-13T17:39:00.735Z,19.8
2022-09-13T17:42:00.710Z,19.8
2022-09-13T17:45:00.702Z,19.8
2022-09-13T17:48:00.714Z,19.8
2022-09-13T17:51:00.714Z,19.8
2022-09-13T17:54:00.780Z,19.8
2022-09-13T17:57:00.666Z,19.8
2022-09-13T18:00:00.770Z,19.8
2022-09-13T18:03:00.786Z,19.8
2022-09-13T18:06:00.731Z,19.8
2022-09-13T18:09:00.710Z,19.8
2022-09-13T18:12:00.702Z,19.8
2022-09-13T18:15:00.723Z,19.8
2022-09-13T18:18:00.699Z,19.8
2022-09-13T18:21:00.704Z,19.8
2022-09-13T18:24:00.755Z,19.8
2022-09-13T18:27:00.715Z,19.8
2022-09-13T18:30:00.738Z,19.8
2022-09-13T18:33:00.746Z,19.2
2022-09-13T18:36:00.810Z,19.2
2022-09-13T18:39:00.712Z,19.2
2022-09-13T18:42:00.745Z,19
2022-09-13T18:45:00.727Z,19
2022-09-13T18:48:00.772Z,19
2022-09-13T18:51:00.671Z,19
2022-09-13T18:54:00.716Z,19
2022-09-13T18:57:00.720Z,19
2022-09-13T19:00:00.742Z,18.6
2022-09-13T19:03:12.807Z,18.6
2022-09-13T19:06:00.731Z,18.6
2022-09-13T19:09:00.720Z,18.6
2022-09-13T19:12:00.741Z,18.6
2022-09-13T19:15:00.691Z,18.6
2022-09-13T19:18:00.710Z,18.6
2022-09-13T19:21:00.767Z,18.6
2022-09-13T19:24:06.670Z,18.6
2022-09-13T19:27:00.702Z,18.1
2022-09-13T19:30:00.692Z,18.1
2022-09-13T19:33:00.787Z,18.1
2022-09-13T19:36:00.716Z,18.1
2022-09-13T19:39:00.736Z,18.1
2022-09-13T19:42:00.832Z,18.1
2022-09-13T19:45:00.711Z,18.1
2022-09-13T19:51:00.719Z,18.1
2022-09-13T19:54:00.701Z,18.1
2022-09-13T19:57:00.722Z,18.1
2022-09-13T20:00:00.718Z,17.5
2022-09-13T20:03:00.702Z,17.5
2022-09-13T20:06:00.723Z,17.5
2022-09-13T20:09:00.749Z,17.5
2022-09-13T20:12:00.995Z,17.5
2022-09-13T20:15:00.707Z,17.5
2022-09-13T20:18:00.722Z,17.5
2022-09-13T20:21:00.744Z,17.5
2022-09-13T20:24:00.759Z,17.1
2022-09-13T20:27:00.677Z,17.1
2022-09-13T20:30:00.768Z,17.1
2022-09-13T20:33:00.681Z,17.1
2022-09-13T20:36:00.754Z,17.1
2022-09-13T20:39:03.827Z,17.1
2022-09-13T20:42:00.721Z,17.1
2022-09-13T20:45:00.666Z,17.1
2022-09-13T20:48:00.723Z,17.1
2022-09-13T20:51:00.695Z,17.1
2022-09-13T20:54:01.041Z,17.1
2022-09-13T20:57:00.709Z,17.1
2022-09-13T21:00:00.731Z,17.1
2022-09-13T21:03:00.824Z,17.1
2022-09-13T21:06:00.698Z,17.1
2022-09-13T21:09:00.768Z,17.1
2022-09-13T21:12:00.695Z,17.1
2022-09-13T21:15:00.691Z,17.1
2022-09-13T21:18:00.663Z,16.5
2022-09-13T21:21:00.716Z,16.5
2022-09-13T21:24:00.771Z,16.5
2022-09-13T21:27:00.753Z,16.5
2022-09-13T21:30:00.822Z,16.5
2022-09-13T21:33:00.720Z,16.5
2022-09-13T21:36:00.716Z,16.5
2022-09-13T21:39:00.710Z,16.5
2022-09-13T21:42:00.676Z,16.5
2022-09-13T21:45:00.687Z,16.5
2022-09-13T21:48:00.690Z,16.5
2022-09-13T21:51:00.739Z,16.5
2022-09-13T21:54:00.710Z,16.5
2022-09-13T21:57:00.689Z,16.5
2022-09-13T22:00:00.860Z,16.5
2022-09-13T22:03:00.735Z,16.5
2022-09-13T22:06:00.737Z,16.5
2022-09-13T22:09:00.707Z,16.5
2022-09-13T22:12:00.681Z,16.5
2022-09-13T22:15:00.702Z,15.9
2022-09-13T22:18:00.705Z,15.9
2022-09-13T22:21:00.667Z,15.9
2022-09-13T22:24:00.727Z,15.9
2022-09-13T22:27:00.688Z,15.9
2022-09-13T22:30:00.698Z,15.9
2022-09-13T22:33:00.675Z,15.9
2022-09-13T22:36:00.679Z,15.9
2022-09-13T22:39:00.729Z,15.9
2022-09-13T22:42:00.708Z,15.9
2022-09-13T22:45:00.719Z,15.9
2022-09-13T22:48:00.686Z,15.7
2022-09-13T22:51:00.743Z,15.7
2022-09-13T22:54:07.116Z,15.7
2022-09-13T22:57:00.694Z,15.7
2022-09-13T23:00:00.770Z,15.7
2022-09-13T23:03:00.759Z,15.7
2022-09-13T23:06:00.676Z,15.4
2022-09-13T23:09:00.875Z,15.4
2022-09-13T23:12:00.692Z,15.4
2022-09-13T23:15:00.730Z,15.4
2022-09-13T23:18:00.724Z,15.4
2022-09-13T23:21:00.733Z,15.4
2022-09-13T23:24:00.817Z,15.2
2022-09-13T23:27:00.689Z,15.2
2022-09-13T23:30:00.719Z,15.2
2022-09-13T23:33:00.675Z,15.2
2022-09-13T23:36:00.715Z,15.1
2022-09-13T23:39:00.768Z,15.1
2022-09-13T23:42:00.679Z,15.1
2022-09-13T23:45:00.721Z,15.1
2022-09-13T23:48:00.718Z,15.1
2022-09-13T23:51:00.723Z,15.1
2022-09-13T23:54:00.738Z,15.1
2022-09-13T23:57:00.709Z,14.9
